Time;durP1;ratioP1;P1;durP2;ratioP2;P2;SDS_P1;SDS_P2;PMS_P1;PMS_P2;Temp;Humidity;BMP_temperature;BMP_pressure;BME280_temperature;BME280_humidity;BME280_pressure;Samples;Min_cycle;Max_cycle;Signal;HPM_P1;HPM_P2
2022/01/31 00:01:57;;;;;;;;;6.50;6.00;;;;;9.52;61.63;102119.66;5069568;27;45530;-71
2022/01/31 00:04:22;;;;;;;;;7.50;6.25;;;;;9.45;61.32;102133.75;5050531;28;45527;-71
2022/01/31 00:06:48;;;;;;;;;8.25;6.75;;;;;9.29;61.52;102115.66;5055908;28;45347;-71
2022/01/31 00:09:17;;;;;;;;;6.00;6.00;;;;;9.19;62.00;102115.78;5053682;28;45380;-71
2022/01/31 00:11:46;;;;;;;;;9.75;7.50;;;;;9.10;62.20;102095.84;5052919;28;45533;-71
2022/01/31 00:14:16;;;;;;;;;12.25;8.25;;;;;9.00;61.91;102086.38;5054102;28;45404;-71
2022/01/31 00:16:41;;;;;;;;;6.50;6.00;;;;;8.92;62.59;102077.72;5052353;28;45411;-71
2022/01/31 00:19:07;;;;;;;;;8.00;8.00;;;;;8.91;63.03;102071.63;5056850;28;45418;-71
2022/01/31 00:21:33;;;;;;;;;12.50;7.25;;;;;8.93;62.91;102076.84;5055241;28;45456;-71
2022/01/31 00:23:58;;;;;;;;;6.25;5.25;;;;;8.87;63.36;102059.44;5055907;28;45458;-71
2022/01/31 00:26:23;;;;;;;;;8.50;6.75;;;;;8.94;63.50;102063.72;5056183;28;45497;-71
2022/01/31 00:28:49;;;;;;;;;11.75;8.00;;;;;8.98;63.30;102070.66;5056635;28;45347;-71
2022/01/31 00:31:14;;;;;;;;;12.25;8.00;;;;;8.91;63.32;102045.41;5056702;28;45238;-71
2022/01/31 00:33:40;;;;;;;;;7.50;5.75;;;;;8.87;63.37;102044.63;5055512;28;45456;-71
2022/01/31 00:36:05;;;;;;;;;6.50;5.25;;;;;8.80;63.67;102034.22;5056687;28;45399;-71
2022/01/31 00:38:30;;;;;;;;;14.00;5.75;;;;;8.55;63.42;101992.66;5055148;28;45392;-71
2022/01/31 00:40:56;;;;;;;;;7.75;6.50;;;;;8.73;63.50;102030.84;5056114;28;45590;-71
2022/01/31 00:43:21;;;;;;;;;6.50;4.00;;;;;8.65;63.68;102026.59;5056103;28;45510;-71
2022/01/31 00:45:58;;;;;;;;;11.75;6.25;;;;;8.62;63.67;102045.84;5055658;28;45499;-71
2022/01/31 00:48:26;;;;;;;;;10.25;8.50;;;;;8.59;63.99;102053.75;5055711;28;45308;-71
2022/01/31 00:50:51;;;;;;;;;7.00;5.25;;;;;8.61;64.26;102050.22;5055513;28;45515;-71
2022/01/31 00:53:16;;;;;;;;;7.00;5.00;;;;;8.69;64.25;102050.09;5054474;28;49104;-71
2022/01/31 00:55:42;;;;;;;;;4.00;4.00;;;;;8.75;63.96;102044.78;5056048;28;45246;-71
2022/01/31 00:58:08;;;;;;;;;6.00;5.00;;;;;8.74;63.94;102023.84;5055950;28;45506;-71
2022/01/31 01:00:33;;;;;;;;;6.50;5.00;;;;;8.87;63.95;102042.00;5055854;28;45427;-71
2022/01/31 01:02:58;;;;;;;;;2.50;2.50;;;;;8.88;63.94;102028.00;5055913;28;46386;-71
2022/01/31 01:05:24;;;;;;;;;4.00;3.00;;;;;8.96;63.76;102024.38;5055765;28;45474;-71
2022/01/31 01:07:49;;;;;;;;;8.25;3.00;;;;;8.97;63.71;101994.63;5055415;28;45411;-71
2022/01/31 01:10:19;;;;;;;;;7.00;5.25;;;;;9.02;63.60;101992.81;5053986;28;45482;-71
2022/01/31 01:12:45;;;;;;;;;3.00;3.00;;;;;9.02;63.47;101996.28;5058108;28;46648;-71
2022/01/31 01:15:11;;;;;;;;;4.50;3.00;;;;;9.02;63.38;101998.91;5055798;28;45820;-71
2022/01/31 01:17:37;;;;;;;;;3.25;3.25;;;;;9.03;63.47;102000.66;5057053;28;45371;-71
2022/01/31 01:20:04;;;;;;;;;7.00;4.00;;;;;9.08;63.48;101988.34;5055994;28;45674;-71
2022/01/31 01:22:29;;;;;;;;;4.25;3.00;;;;;9.08;63.76;101988.34;5055669;28;45557;-71
2022/01/31 01:24:55;;;;;;;;;7.00;4.25;;;;;9.09;63.50;101966.47;5055135;28;45446;-71
2022/01/31 01:27:21;;;;;;;;;4.75;3.00;;;;;9.11;63.61;101971.69;5055759;27;45478;-71
2022/01/31 01:29:47;;;;;;;;;3.00;3.00;;;;;9.13;63.56;101965.53;5054959;28;45458;-71
2022/01/31 01:32:13;;;;;;;;;3.75;2.25;;;;;9.15;63.93;101953.25;5055532;28;45489;-71
2022/01/31 01:34:39;;;;;;;;;5.75;2.00;;;;;9.15;63.69;101963.75;5054995;28;45773;-71
2022/01/31 01:37:04;;;;;;;;;0.75;0.75;;;;;9.14;63.56;101940.16;5055767;28;45386;-71
2022/01/31 01:39:31;;;;;;;;;8.25;3.50;;;;;9.15;63.96;101937.50;5054373;28;45348;-71
2022/01/31 01:41:56;;;;;;;;;3.75;2.00;;;;;9.14;63.75;101924.44;5054792;28;45504;-71
2022/01/31 01:44:43;;;;;;;;;5.75;1.50;;;;;8.95;64.02;101887.19;5055702;28;45336;-71
2022/01/31 01:47:09;;;;;;;;;1.25;1.00;;;;;9.11;63.93;101917.47;5046797;28;45642;-71
2022/01/31 01:49:35;;;;;;;;;6.00;2.00;;;;;9.05;64.13;101914.97;5055018;28;45465;-71
2022/01/31 01:52:01;;;;;;;;;3.00;3.00;;;;;9.03;64.11;101916.75;5055439;28;50976;-71
2022/01/31 01:54:26;;;;;;;;;3.25;2.75;;;;;9.00;64.48;101908.94;5052595;28;45494;-71
2022/01/31 01:56:52;;;;;;;;;10.50;2.75;;;;;9.03;64.89;101910.63;5055116;28;45438;-71
2022/01/31 01:59:17;;;;;;;;;4.00;2.00;;;;;9.02;64.16;101915.00;5055819;28;45441;-71
2022/01/31 02:01:42;;;;;;;;;4.25;1.75;;;;;8.97;64.75;101897.63;5055089;28;46303;-71
2022/01/31 02:04:08;;;;;;;;;4.50;1.75;;;;;9.00;64.70;101919.41;5056444;28;52304;-71
2022/01/31 02:06:33;;;;;;;;;6.00;2.00;;;;;9.03;64.71;101916.75;5057965;28;45349;-71
2022/01/31 02:09:01;;;;;;;;;4.00;3.00;;;;;9.03;64.77;101901.03;5058063;28;45391;-71
2022/01/31 02:11:26;;;;;;;;;6.25;3.00;;;;;9.05;65.30;101904.47;5058652;28;45739;-71
2022/01/31 02:13:51;;;;;;;;;2.00;2.00;;;;;9.10;65.52;101904.41;5058343;28;54933;-71
2022/01/31 02:16:17;;;;;;;;;3.00;3.00;;;;;9.08;65.59;101893.94;5074255;27;45369;-71
2022/01/31 02:18:49;;;;;;;;;3.75;2.75;;;;;9.18;65.55;101888.50;5056118;28;45400;-71
2022/01/31 02:21:16;;;;;;;;;2.50;1.50;;;;;9.20;65.96;101887.59;5058532;28;46566;-71
2022/01/31 02:23:42;;;;;;;;;3.00;2.00;;;;;9.24;65.74;101886.66;5058243;28;45687;-71
2022/01/31 02:26:07;;;;;;;;;5.00;2.00;;;;;9.28;66.00;101875.19;5058570;28;45350;-71
2022/01/31 02:28:36;;;;;;;;;3.50;2.75;;;;;9.25;66.03;101867.41;5058804;28;45357;-71
2022/01/31 02:31:03;;;;;;;;;7.25;3.00;;;;;9.31;66.52;101863.78;5058338;28;45727;-71
2022/01/31 02:33:29;;;;;;;;;2.50;2.50;;;;;9.30;66.73;101857.69;5057318;28;45324;-71
2022/01/31 02:35:57;;;;;;;;;4.50;2.75;;;;;9.31;66.29;101846.28;5058540;28;45480;-71
2022/01/31 02:38:23;;;;;;;;;2.75;2.00;;;;;9.31;66.74;101834.94;5057052;28;45471;-71
2022/01/31 02:40:50;;;;;;;;;5.75;2.00;;;;;9.23;66.51;101824.56;5058213;28;46434;-71
2022/01/31 02:43:23;;;;;;;;;5.00;2.00;;;;;9.32;67.33;101849.75;5056390;28;45440;-71
2022/01/31 02:45:49;;;;;;;;;3.25;1.50;;;;;9.34;66.95;101845.34;5054311;28;45602;-71
2022/01/31 02:48:16;;;;;;;;;3.50;2.00;;;;;9.33;66.95;101841.00;5057523;28;45712;-71
2022/01/31 02:50:42;;;;;;;;;4.25;2.50;;;;;9.33;66.98;101823.50;5058305;28;46728;-71
2022/01/31 02:53:27;;;;;;;;;4.00;2.00;;;;;9.32;67.57;101844.53;5058168;28;45437;-71
2022/01/31 02:55:55;;;;;;;;;4.75;1.50;;;;;9.28;67.34;101814.00;5057922;28;45336;-71
2022/01/31 02:58:22;;;;;;;;;7.75;2.50;;;;;9.26;67.66;101815.78;5058272;28;45425;-71
2022/01/31 03:00:48;;;;;;;;;5.00;3.00;;;;;9.31;67.36;101821.81;5055915;28;46348;-71
2022/01/31 03:03:13;;;;;;;;;3.00;3.00;;;;;9.25;67.46;101798.34;5057213;28;46862;-71
2022/01/31 03:05:38;;;;;;;;;6.00;2.00;;;;;9.23;67.59;101798.34;5058358;28;45486;-71
2022/01/31 03:08:05;;;;;;;;;5.75;3.25;;;;;9.24;67.76;101807.97;5057512;28;51517;-71
2022/01/31 03:10:30;;;;;;;;;1.00;1.00;;;;;9.24;67.91;101794.84;5057945;28;46688;-71
2022/01/31 03:12:56;;;;;;;;;4.25;2.00;;;;;9.25;67.86;101790.47;5057253;28;45462;-71
2022/01/31 03:15:21;;;;;;;;;5.25;1.25;;;;;9.21;68.21;101791.41;5072365;27;45269;-71
2022/01/31 03:17:49;;;;;;;;;4.25;1.00;;;;;9.23;68.39;101772.13;5057782;28;45435;-71
2022/01/31 03:20:20;;;;;;;;;4.50;2.00;;;;;9.27;68.73;101772.91;5056610;28;46256;-71
2022/01/31 03:22:46;;;;;;;;;1.25;1.25;;;;;9.29;68.88;101764.13;5056205;28;45849;-71
2022/01/31 03:25:12;;;;;;;;;3.50;1.75;;;;;9.31;68.97;101772.84;5057860;28;45399;-71
2022/01/31 03:27:38;;;;;;;;;0.75;0.75;;;;;9.34;69.46;101766.63;5057006;28;45415;-71
2022/01/31 03:30:11;;;;;;;;;3.00;1.50;;;;;9.34;69.84;101761.41;5057209;28;46245;-71
2022/01/31 03:32:36;;;;;;;;;2.00;2.00;;;;;9.33;70.01;101762.28;5058394;28;45411;-71
2022/01/31 03:35:03;;;;;;;;;0.00;0.00;;;;;9.32;70.90;101771.94;5053860;28;47521;-71
2022/01/31 03:37:29;;;;;;;;;2.00;1.00;;;;;9.38;70.56;101786.69;5057755;28;45580;-71
2022/01/31 03:39:54;;;;;;;;;2.00;0.00;;;;;9.42;71.29;101775.22;5056473;28;46491;-71
2022/01/31 03:42:20;;;;;;;;;2.50;0.75;;;;;9.49;71.36;101768.06;5057324;27;45466;-71
2022/01/31 03:44:47;;;;;;;;;5.50;1.50;;;;;9.49;71.52;101754.94;5057658;28;45478;-71
2022/01/31 03:47:16;;;;;;;;;1.00;1.00;;;;;9.51;71.20;101732.19;5057049;28;45165;-71
2022/01/31 03:49:42;;;;;;;;;2.25;0.25;;;;;9.60;71.90;101745.06;5057297;28;45508;-71
2022/01/31 03:52:07;;;;;;;;;0.25;0.00;;;;;9.60;71.39;101739.81;5056071;28;62086;-71
2022/01/31 03:54:33;;;;;;;;;0.00;0.00;;;;;9.63;72.89;101745.88;5072197;28;45423;-71
2022/01/31 03:56:58;;;;;;;;;4.00;1.00;;;;;9.49;73.01;101711.22;5057192;28;45479;-71
2022/01/31 03:59:24;;;;;;;;;6.00;1.00;;;;;9.66;73.47;101735.31;5056982;28;50917;-71
2022/01/31 04:01:49;;;;;;;;;1.75;0.25;;;;;9.67;73.42;101725.69;5058109;28;45826;-71
2022/01/31 04:04:14;;;;;;;;;0.00;0.00;;;;;9.67;73.52;101723.06;5057540;28;45306;-71
2022/01/31 04:06:40;;;;;;;;;3.00;1.50;;;;;9.71;74.14;101742.19;5056006;28;45281;-71
2022/01/31 04:09:06;;;;;;;;;5.00;1.75;;;;;9.71;74.56;101737.84;5055875;28;46401;-71
2022/01/31 04:11:32;;;;;;;;;5.25;1.00;;;;;9.68;75.30;101754.50;5056591;28;45930;-72
2022/01/31 04:13:58;;;;;;;;;0.00;0.00;;;;;9.62;76.02;101738.91;5057043;28;45511;-71
2022/01/31 04:16:23;;;;;;;;;2.00;0.25;;;;;9.66;75.44;101755.47;5056912;28;45418;-71
2022/01/31 04:18:48;;;;;;;;;1.50;0.50;;;;;9.65;75.83;101753.72;5056259;28;47794;-72
2022/01/31 04:21:14;;;;;;;;;0.00;0.00;;;;;9.65;75.67;101759.81;5056822;28;49967;-71
2022/01/31 04:23:40;;;;;;;;;0.00;0.00;;;;;9.61;75.33;101760.81;5055923;28;45750;-71
2022/01/31 04:26:13;;;;;;;;;0.75;0.00;;;;;9.59;76.44;101754.72;5056772;28;45505;-71
2022/01/31 04:28:48;;;;;;;;;1.00;0.00;;;;;9.59;76.37;101765.22;5056924;28;45370;-71
2022/01/31 04:33:41;;;;;;;;;1.00;0.50;;;;;9.54;76.68;101747.84;5056062;27;45407;-71
2022/01/31 04:36:07;;;;;;;;;2.00;1.00;;;;;9.62;76.36;101743.31;5056687;28;45468;-71
2022/01/31 04:38:33;;;;;;;;;1.00;1.00;;;;;9.55;77.22;101732.09;5056709;28;45553;-71
2022/01/31 04:40:59;;;;;;;;;0.00;0.00;;;;;9.64;77.01;101752.00;5056537;28;45559;-71
2022/01/31 04:43:25;;;;;;;;;2.50;1.75;;;;;9.57;76.09;101740.78;5056350;28;45550;-71
2022/01/31 04:45:50;;;;;;;;;1.25;0.00;;;;;9.61;76.60;101749.44;5055004;28;45399;-71
2022/01/31 04:48:17;;;;;;;;;1.50;0.00;;;;;9.52;76.91;101731.28;5044790;28;45320;-71
2022/01/31 04:50:43;;;;;;;;;4.00;1.00;;;;;9.63;76.95;101745.03;5051935;28;45632;-71
2022/01/31 04:53:10;;;;;;;;;5.00;0.00;;;;;9.62;76.90;101738.91;5054976;28;45515;-71
2022/01/31 04:55:35;;;;;;;;;1.75;1.50;;;;;9.64;77.20;101746.75;5056554;28;45369;-72
2022/01/31 04:58:01;;;;;;;;;1.25;1.00;;;;;9.64;76.74;101737.09;5056184;28;46204;-71
2022/01/31 05:00:26;;;;;;;;;2.00;0.00;;;;;9.64;77.34;101731.84;5052819;28;45408;-71
2022/01/31 05:02:52;;;;;;;;;1.25;1.25;;;;;9.62;77.37;101730.19;5056667;28;46304;-71
2022/01/31 05:05:17;;;;;;;;;1.50;1.00;;;;;9.65;77.82;101735.34;5055890;28;45391;-71
2022/01/31 05:07:42;;;;;;;;;1.00;0.25;;;;;9.68;77.62;101738.75;5055947;28;45789;-71
2022/01/31 05:10:08;;;;;;;;;1.00;1.00;;;;;9.66;77.24;101737.09;5056365;28;46045;-71
2022/01/31 05:12:34;;;;;;;;;1.50;1.00;;;;;9.67;77.81;101741.44;5054455;28;45414;-72
2022/01/31 05:14:59;;;;;;;;;0.00;0.00;;;;;9.67;77.59;101742.28;5056038;28;45426;-71
2022/01/31 05:17:25;;;;;;;;;2.00;0.75;;;;;9.59;76.90;101735.47;5055987;28;45391;-71
2022/01/31 05:19:50;;;;;;;;;0.00;0.00;;;;;9.72;77.59;101754.44;5055730;28;45404;-71
2022/01/31 05:22:15;;;;;;;;;6.33;3.00;;;;;9.71;76.76;101742.19;5055649;28;53911;-71
2022/01/31 05:24:41;;;;;;;;;1.25;1.00;;;;;9.73;76.81;101741.28;5052601;28;45492;-71
2022/01/31 05:27:06;;;;;;;;;1.00;1.00;;;;;9.72;76.32;101744.81;5054969;28;45517;-71
2022/01/31 05:29:31;;;;;;;;;3.75;1.25;;;;;9.72;75.73;101762.31;5056079;28;45823;-71
2022/01/31 05:31:57;;;;;;;;;1.00;1.00;;;;;9.62;75.07;101770.41;5053983;28;45547;-71
2022/01/31 05:34:24;;;;;;;;;2.25;0.75;;;;;9.57;75.23;101779.28;5055497;28;50446;-71
2022/01/31 05:36:54;;;;;;;;;1.50;0.50;;;;;9.52;74.80;101781.13;5053490;28;45517;-71
2022/01/31 05:39:19;;;;;;;;;1.00;1.00;;;;;9.49;74.73;101789.94;5055459;28;45514;-71
2022/01/31 05:41:44;;;;;;;;;0.25;0.25;;;;;9.47;74.23;101765.50;5056082;28;45558;-71
2022/01/31 05:44:10;;;;;;;;;0.00;0.00;;;;;9.37;73.63;101772.69;5055161;28;45220;-71
2022/01/31 05:46:35;;;;;;;;;1.00;0.00;;;;;9.34;73.25;101777.13;5054541;28;55697;-71
2022/01/31 05:49:00;;;;;;;;;0.00;0.00;;;;;9.22;73.17;101757.28;5055305;28;45622;-71
2022/01/31 05:51:27;;;;;;;;;1.00;1.00;;;;;9.18;73.42;101768.72;5053611;27;45408;-71
2022/01/31 05:53:52;;;;;;;;;2.00;0.00;;;;;9.09;72.86;101769.78;5055398;28;45629;-71
2022/01/31 05:56:18;;;;;;;;;2.00;1.00;;;;;9.06;72.55;101768.97;5054845;28;46262;-71
2022/01/31 05:58:45;;;;;;;;;0.75;0.75;;;;;9.02;72.79;101767.31;5054561;28;46031;-71
2022/01/31 06:01:11;;;;;;;;;4.25;0.25;;;;;8.99;72.59;101775.25;5055635;28;45530;-71
2022/01/31 06:03:38;;;;;;;;;1.75;0.50;;;;;8.94;73.15;101764.84;5045234;27;45503;-71
2022/01/31 06:06:04;;;;;;;;;2.00;1.00;;;;;8.88;72.79;101757.13;5051891;28;45629;-71
2022/01/31 06:08:29;;;;;;;;;4.50;1.50;;;;;8.85;72.63;101771.13;5056329;28;45490;-71
2022/01/31 06:10:55;;;;;;;;;3.00;0.00;;;;;8.79;72.81;101776.50;5054467;28;45308;-71
2022/01/31 06:13:24;;;;;;;;;1.75;1.00;;;;;8.76;72.68;101781.78;5055310;28;45293;-71
2022/01/31 06:15:50;;;;;;;;;2.25;0.75;;;;;8.73;73.17;101781.00;5049134;28;47045;-70
2022/01/31 06:18:15;;;;;;;;;0.00;0.00;;;;;8.66;72.75;101780.22;5054801;28;45981;-71
2022/01/31 06:20:41;;;;;;;;;0.25;0.25;;;;;8.66;73.01;101792.47;5053300;28;45810;-71
2022/01/31 06:23:07;;;;;;;;;0.25;0.25;;;;;8.61;72.83;101803.03;5046532;28;45432;-71
2022/01/31 06:25:34;;;;;;;;;0.00;0.00;;;;;8.57;72.78;101802.22;5054086;28;46530;-70
2022/01/31 06:27:59;;;;;;;;;4.50;1.00;;;;;8.53;72.35;101805.78;5054114;28;46107;-71
2022/01/31 06:30:25;;;;;;;;;2.50;1.00;;;;;8.53;72.60;101790.06;5053007;27;45487;-71
2022/01/31 06:32:50;;;;;;;;;3.25;2.00;;;;;8.51;72.57;101784.00;5059858;28;45534;-71
2022/01/31 06:35:17;;;;;;;;;1.00;1.00;;;;;8.49;72.35;101772.66;5055607;27;46118;-71
2022/01/31 06:37:43;;;;;;;;;4.75;2.00;;;;;8.46;72.31;101777.97;5055167;28;45533;-71
2022/01/31 06:40:08;;;;;;;;;3.50;2.00;;;;;8.43;72.08;101779.78;5053427;28;48101;-71
2022/01/31 06:42:34;;;;;;;;;1.00;1.00;;;;;8.40;72.06;101783.31;5054512;28;45498;-71
2022/01/31 06:44:59;;;;;;;;;0.00;0.00;;;;;8.35;72.13;101787.72;5054979;28;45310;-71
2022/01/31 06:47:25;;;;;;;;;2.75;1.50;;;;;8.34;72.23;101771.16;5054466;28;45489;-71
2022/01/31 06:49:51;;;;;;;;;1.50;1.00;;;;;8.36;71.92;101784.28;5058067;28;45422;-72
2022/01/31 06:52:16;;;;;;;;;1.25;1.00;;;;;8.33;72.34;101792.13;5058377;28;45415;-70
2022/01/31 06:54:43;;;;;;;;;3.50;1.00;;;;;8.25;71.96;101789.66;5055967;28;45442;-73
2022/01/31 06:57:08;;;;;;;;;1.25;1.00;;;;;8.25;71.69;101773.94;5059606;28;45525;-72
2022/01/31 06:59:34;;;;;;;;;2.25;1.25;;;;;8.26;71.80;101788.75;5058924;28;45427;-71
2022/01/31 07:01:59;;;;;;;;;0.75;0.75;;;;;8.21;72.05;101780.13;5049902;28;45722;-71
2022/01/31 07:04:24;;;;;;;;;3.00;1.00;;;;;8.19;71.96;101791.47;5053200;28;45491;-71
2022/01/31 07:06:50;;;;;;;;;2.25;1.00;;;;;8.19;71.64;101801.97;5056135;28;45423;-71
2022/01/31 07:09:15;;;;;;;;;1.50;1.00;;;;;8.18;71.72;101808.09;5054007;28;45374;-71
2022/01/31 07:11:42;;;;;;;;;1.00;0.00;;;;;8.16;71.96;101812.50;5053117;28;45555;-71
2022/01/31 07:14:30;;;;;;;;;0.75;0.75;;;;;8.17;71.82;101806.38;5055199;28;45998;-71
2022/01/31 07:16:55;;;;;;;;;2.00;1.00;;;;;8.16;71.99;101809.88;5053037;28;45450;-71
2022/01/31 07:19:23;;;;;;;;;2.00;1.00;;;;;8.08;71.60;101809.97;5054346;28;45377;-71
2022/01/31 07:21:50;;;;;;;;;5.00;4.50;;;;;8.11;71.34;101818.66;5053141;28;45687;-72
2022/01/31 07:24:42;;;;;;;;;20.50;16.00;;;;;8.17;71.62;101822.94;5052585;28;45518;-72
2022/01/31 07:27:07;;;;;;;;;11.75;10.00;;;;;8.18;71.03;101831.66;5068818;28;46079;-72
2022/01/31 07:29:32;;;;;;;;;3.00;3.00;;;;;8.14;71.55;101822.97;5052307;28;45356;-72
2022/01/31 07:31:59;;;;;;;;;34.33;29.00;;;;;8.22;71.15;101825.50;5053333;28;45460;-72
2022/01/31 07:34:25;;;;;;;;;6.00;6.00;;;;;8.21;71.07;101813.28;5053402;28;45652;-73
2022/01/31 07:36:51;;;;;;;;;12.50;10.25;;;;;8.20;71.19;101822.03;5054726;28;45473;-72
2022/01/31 07:39:17;;;;;;;;;7.75;7.00;;;;;8.25;71.04;101810.59;5054743;28;45449;-71
2022/01/31 07:41:42;;;;;;;;;7.00;5.75;;;;;8.22;71.16;101805.41;5053384;28;45458;-72
2022/01/31 07:44:08;;;;;;;;;10.25;8.00;;;;;8.24;71.35;101818.47;5052184;28;46490;-71
2022/01/31 07:46:34;;;;;;;;;7.50;2.25;;;;;8.29;71.13;101832.34;5054574;28;45886;-72
2022/01/31 07:48:59;;;;;;;;;8.75;7.00;;;;;8.34;70.70;101825.28;5054645;28;45344;-72
2022/01/31 07:51:25;;;;;;;;;6.25;5.50;;;;;8.44;71.13;101826.03;5054120;28;45382;-72
2022/01/31 07:53:50;;;;;;;;;5.50;5.00;;;;;8.57;70.66;101838.06;5052525;28;45767;-72
2022/01/31 07:56:17;;;;;;;;;11.25;10.75;;;;;8.74;70.41;101833.38;5052786;28;45601;-72
2022/01/31 07:58:43;;;;;;;;;7.50;7.00;;;;;8.79;70.64;101842.03;5053803;28;45397;-72
2022/01/31 08:01:08;;;;;;;;;11.00;7.75;;;;;8.87;70.40;101849.72;5052757;28;45477;-72
2022/01/31 08:03:35;;;;;;;;;77.00;56.50;;;;;8.87;69.65;101857.59;5055300;28;45470;-72
2022/01/31 08:06:00;;;;;;;;;32.00;26.25;;;;;8.94;69.85;101869.72;5052010;28;46002;-72
2022/01/31 08:08:29;;;;;;;;;11.25;7.00;;;;;8.98;69.54;101881.00;5053113;28;45517;-71
2022/01/31 08:10:56;;;;;;;;;2.00;2.00;;;;;9.05;69.61;101880.00;5052340;28;45289;-72
2022/01/31 08:13:22;;;;;;;;;3.50;2.00;;;;;9.16;69.38;101883.28;5052470;28;46525;-71
2022/01/31 08:15:59;;;;;;;;;3.00;1.00;;;;;9.32;69.24;101884.72;5050758;28;45435;-72
2022/01/31 08:18:25;;;;;;;;;2.00;2.00;;;;;9.59;69.15;101871.94;5055688;28;45296;-72
2022/01/31 08:20:50;;;;;;;;;8.25;7.00;;;;;9.73;68.11;101866.44;5051844;28;47853;-72
2022/01/31 08:23:16;;;;;;;;;7.50;6.50;;;;;9.85;67.85;101871.41;5051598;28;45286;-72
2022/01/31 08:25:47;;;;;;;;;9.50;6.00;;;;;9.90;67.80;101886.16;5051081;28;45590;-72
2022/01/31 08:28:12;;;;;;;;;2.00;2.00;;;;;9.94;67.86;101900.09;5052818;28;45378;-72
2022/01/31 08:31:02;;;;;;;;;3.25;3.00;;;;;9.93;67.65;101872.09;5054512;28;45407;-72
2022/01/31 08:33:35;;;;;;;;;2.00;1.25;;;;;9.99;67.11;101871.97;5054163;28;46293;-72
2022/01/31 08:36:02;;;;;;;;;96.25;73.75;;;;;10.03;67.24;101880.66;5051626;28;45360;-71
2022/01/31 08:38:27;;;;;;;;;3.00;1.75;;;;;10.06;66.77;101878.78;5052071;28;45550;-72
2022/01/31 08:40:53;;;;;;;;;2.75;2.00;;;;;10.08;66.81;101879.66;5051775;28;45506;-71
2022/01/31 08:43:19;;;;;;;;;7.75;2.00;;;;;10.06;66.69;101876.16;5054512;28;46112;-72
2022/01/31 08:45:46;;;;;;;;;3.00;3.00;;;;;10.08;66.69;101884.03;5055084;28;45806;-72
2022/01/31 08:48:11;;;;;;;;;12.75;7.75;;;;;10.07;67.23;101875.25;5051098;28;45546;-72
2022/01/31 08:50:36;;;;;;;;;22.25;17.25;;;;;10.09;66.82;101909.41;5052738;28;50397;-72
2022/01/31 08:53:02;;;;;;;;;10.50;7.50;;;;;10.05;66.99;101905.97;5051631;28;45986;-72
2022/01/31 08:55:27;;;;;;;;;6.50;3.75;;;;;10.03;66.47;101914.78;5070213;27;45483;-73
2022/01/31 08:57:55;;;;;;;;;6.75;4.25;;;;;10.06;66.21;101933.09;5054088;28;45286;-70
2022/01/31 09:00:22;;;;;;;;;10.25;6.25;;;;;10.09;66.38;101928.66;5065292;28;45546;-70
2022/01/31 09:03:02;;;;;;;;;12.75;10.75;;;;;10.14;66.49;101932.03;5069660;27;47443;-70
2022/01/31 09:05:27;;;;;;;;;1.25;1.25;;;;;10.16;66.05;101908.34;5048896;28;45998;-70
2022/01/31 09:07:53;;;;;;;;;3.25;2.25;;;;;10.19;66.13;101892.53;5049636;28;45442;-70
2022/01/31 09:10:18;;;;;;;;;9.00;3.25;;;;;10.31;66.44;101889.66;5053063;28;45423;-70
2022/01/31 09:12:44;;;;;;;;;7.25;4.00;;;;;11.69;66.71;101873.75;5051439;28;46455;-70
2022/01/31 09:15:12;;;;;;;;;6.75;3.75;;;;;13.64;65.79;101865.50;5052116;28;45682;-70
2022/01/31 09:17:38;;;;;;;;;10.00;9.75;;;;;14.75;63.22;101862.81;5051599;28;45540;-70
2022/01/31 09:20:05;;;;;;;;;2.00;2.00;;;;;14.52;60.16;101881.44;5053279;28;45573;-71
2022/01/31 09:22:30;;;;;;;;;59.25;43.00;;;;;13.98;59.46;101882.69;5053448;28;46959;-70
2022/01/31 09:24:55;;;;;;;;;16.75;11.00;;;;;13.56;59.50;101868.41;5051302;28;45473;-71
2022/01/31 09:27:21;;;;;;;;;3.50;2.50;;;;;14.16;60.40;101862.63;5050565;28;45479;-70
2022/01/31 09:29:46;;;;;;;;;4.75;3.00;;;;;14.76;59.26;101880.41;5054033;28;45390;-70
2022/01/31 09:32:12;;;;;;;;;4.75;2.75;;;;;15.50;58.00;101877.19;5056789;27;45644;-70
2022/01/31 09:34:38;;;;;;;;;2.50;2.50;;;;;15.37;56.99;101863.66;5056199;28;45918;-72
2022/01/31 09:37:03;;;;;;;;;4.50;2.00;;;;;15.35;57.19;101863.72;5053521;27;45494;-72
2022/01/31 09:39:30;;;;;;;;;6.50;3.00;;;;;15.34;55.69;101866.44;5052507;28;46501;-72
2022/01/31 09:41:57;;;;;;;;;2.25;1.50;;;;;14.80;56.28;101868.78;5046593;28;45648;-72
2022/01/31 09:49:19;;;;;;;;;5.25;4.75;;;;;17.75;55.41;101864.22;5050105;28;45546;-72
2022/01/31 09:51:45;;;;;;;;;6.00;1.00;;;;;19.81;52.79;101878.63;5050592;28;46659;-72
2022/01/31 09:54:11;;;;;;;;;4.00;4.00;;;;;20.52;49.57;101869.56;5049643;28;45915;-72
2022/01/31 09:56:40;;;;;;;;;4.00;4.00;;;;;19.92;49.07;101866.41;5052845;28;45956;-72
2022/01/31 09:59:07;;;;;;;;;4.50;2.50;;;;;18.94;48.34;101886.63;5049886;28;45538;-73
2022/01/31 10:01:41;;;;;;;;;7.00;5.00;;;;;17.77;48.68;101896.03;5050815;28;46190;-72
2022/01/31 10:04:17;;;;;;;;;4.75;4.75;;;;;16.63;50.20;101904.53;5052477;28;45392;-71
2022/01/31 10:06:46;;;;;;;;;8.75;4.75;;;;;15.75;51.27;101912.28;5050323;28;45384;-72
2022/01/31 10:09:20;;;;;;;;;8.75;5.25;;;;;14.97;51.97;101901.59;5050960;28;45632;-72
2022/01/31 10:11:51;;;;;;;;;5.75;5.25;;;;;14.22;52.67;101909.94;5051474;28;46174;-72
2022/01/31 10:17:29;;;;;;;;;3.50;1.75;;;;;13.12;54.47;101919.28;5042302;28;45816;-72
2022/01/31 10:19:56;;;;;;;;;1.00;1.00;;;;;12.67;54.45;101915.50;5050959;28;45353;-72
2022/01/31 10:22:25;;;;;;;;;2.00;1.50;;;;;12.35;54.85;101931.50;5052723;28;45601;-72
2022/01/31 10:24:53;;;;;;;;;5.25;1.25;;;;;12.02;55.07;101945.66;5056240;28;45800;-72
2022/01/31 10:27:34;;;;;;;;;2.50;2.00;;;;;11.78;55.59;101956.84;5054898;28;45442;-72
2022/01/31 10:30:28;;;;;;;;;1.25;1.25;;;;;12.43;56.34;101947.94;5055790;28;45456;-72
2022/01/31 10:32:56;;;;;;;;;8.25;3.25;;;;;13.60;55.35;101929.91;5051262;28;46815;-70
2022/01/31 10:35:34;;;;;;;;;9.00;7.50;;;;;13.65;53.77;101927.97;5053347;28;45645;-72
2022/01/31 10:38:10;;;;;;;;;8.00;5.50;;;;;13.86;54.15;101913.09;5052218;28;45501;-72
2022/01/31 10:56:47;;;;;;;;;4.75;3.25;;;;;14.57;51.45;101942.97;5054067;28;45420;-70
2022/01/31 10:59:15;;;;;;;;;4.50;4.50;;;;;14.33;51.27;101947.41;5053951;28;45470;-72
2022/01/31 11:01:45;;;;;;;;;6.00;6.00;;;;;14.08;51.85;101939.56;5052948;28;45395;-70
2022/01/31 11:04:12;;;;;;;;;20.00;16.50;;;;;13.80;52.16;101968.81;5054967;28;46559;-69
2022/01/31 11:06:49;;;;;;;;;9.75;5.25;;;;;13.42;52.08;101962.28;5056213;28;45392;-70
2022/01/31 11:09:17;;;;;;;;;6.50;5.25;;;;;13.10;52.38;101966.81;5054813;28;45625;-70
2022/01/31 11:11:47;;;;;;;;;3.25;2.00;;;;;13.23;52.65;101962.91;5053300;28;45518;-69
2022/01/31 11:14:14;;;;;;;;;2.25;1.75;;;;;13.83;53.20;101956.34;5052120;28;45497;-70
2022/01/31 11:16:43;;;;;;;;;5.25;3.00;;;;;14.25;52.30;101950.38;5053463;28;45588;-70
2022/01/31 11:19:10;;;;;;;;;10.00;6.00;;;;;14.59;51.73;101956.97;5054773;28;45352;-70
2022/01/31 11:21:43;;;;;;;;;4.75;2.00;;;;;14.75;51.37;101941.34;5056028;28;45404;-70
2022/01/31 11:24:18;;;;;;;;;6.75;4.50;;;;;14.51;49.93;101972.28;5052622;28;46125;-70
2022/01/31 11:26:47;;;;;;;;;20.25;17.00;;;;;14.23;50.64;101961.91;5051506;28;45418;-69
2022/01/31 11:29:14;;;;;;;;;17.50;17.50;;;;;13.96;49.77;101961.19;5053560;28;45426;-70
2022/01/31 11:31:39;;;;;;;;;9.25;8.75;;;;;13.83;50.38;101958.13;5054415;28;45688;-70
2022/01/31 11:34:08;;;;;;;;;4.25;3.50;;;;;13.75;50.38;101950.47;5054550;28;45373;-70
2022/01/31 11:36:36;;;;;;;;;19.00;17.25;;;;;14.13;50.75;101944.66;5054138;28;45892;-69
2022/01/31 11:39:09;;;;;;;;;9.50;5.50;;;;;14.21;49.75;101908.22;5049957;28;45539;-70
2022/01/31 11:41:38;;;;;;;;;28.25;24.50;;;;;14.35;49.63;101949.09;5043890;28;47643;-70
2022/01/31 11:44:29;;;;;;;;;12.00;11.00;;;;;14.25;49.80;101953.00;5035582;28;46431;-70
2022/01/31 11:46:58;;;;;;;;;11.75;9.50;;;;;13.96;50.35;101943.53;5045862;28;45602;-70
2022/01/31 11:49:23;;;;;;;;;7.75;3.00;;;;;13.63;51.23;101974.72;5048456;28;45660;-70
2022/01/31 11:52:06;;;;;;;;;6.25;3.00;;;;;13.22;52.24;101989.38;5050818;28;45781;-69
2022/01/31 11:54:34;;;;;;;;;71.50;52.00;;;;;12.83;53.98;101970.38;5051882;28;46263;-69
2022/01/31 11:56:59;;;;;;;;;32.75;30.00;;;;;12.41;54.52;101979.59;5043662;28;45261;-69